Airfield :
LOGIN :

Register | Disclaimer

   EN    FR    IT 

 










Legend :    VFR   Marginal VFR   IFR   Intensive IFR   Very Intensive IFR
Visi :
Ceiling :
>= 8 km
>= 3000ft
5 to 8 km
1000 to 3000 ft
1500m to 5 km
500 to 1000 ft
800 to 1500m
200 to 500 ft
< 800m
< 200 ft
Symbols :   Thunderstorms  Fog  Heavy snow  Heavy precipitations  Wind > 20 kt
SIGMETs :     Misc.  Thunderstorms  Icing  Turbulence  Mountain Waves  Volcanic Ashes






- Airport Elevation : 38 ft
- IATA code : BOH


EGHH - Bournemouth

CURRENT METAR :
  • 241150Z 24021KT 4000 -RA BR SCT006 BKN007 11/10 Q1010

EXPIRED METARs :
  • 241120Z 24022G33KT 4000 -RA BR SCT007 BKN008 11/10 Q1010
  • 241050Z 24021G32KT 3500 -DZ BR SCT007 BKN008 11/09 Q1010
  • 241020Z 24025G36KT 4000 -DZ SCT008 BKN010 11/09 Q1011
  • 240950Z 24027G41KT 4500 -DZ BR SCT007 BKN009 11/10 Q1011
  • 240920Z 24024G40KT 9999 -DZ SCT007 BKN009 11/09 Q1011

TAF TAF EGHH
Valid from the 24 at 12:00 until the 24 at 21:00 UTC


241101Z 2412/2421 25020G30KT 9999 FEW006 BKN010
TEMPO 2412/2414 6000 RA BKN006
PROB30
TEMPO 2412/2414 25030G40KT 3000 +RADZ BKN004
BECMG 2414/2417 FEW030
PROB30
TEMPO 2414/2418 7000 SHRA BKN008
BECMG 2418/2421 28015KT
ATIS : +44 1202 364 151
Met : +44 1202 364 158 (TAF)



MET'MAP, your aeronautical weather chart ! - Copyright ORBIFLY December 2007 - Disclaimer

ORBIFLY MET'MAP TEAM :

Programming & Development : Alexandra Zaïnal
Concept & original design : Baudouin d'Aumeries
Assistance for programming : Marc-Olivier Méhu
Technical & hardware support : Manuel Goepfert

Contact : metmap@orbifly.com




SOURCES & CREDITS :

   NOAA